Algiers Airport, Algeria

7:50 PM CET on July 24, 2014 (GMT +0100)
Houari Boumediene (DAAG) Elev 82 ft | 36.69 °N, 3.22 °E | Change Station

Current weather conditions updated 20 minutes ago

Scattered Clouds
Scattered Clouds
81 °F
Feels Like 85 °F
N
0
Wind Variable Wind from North

Tomorrow is forecast to be nearly the same temperature as today.

Today
High -- | Low -- °F
--% Chance of Precip.
Yesterday
High -- | Low -- °F
Precip. -- in
5:46 AM 8:00 PM
Waning Crescent, 4% visible
Pressure 29.77 in
Visibility 6.2 miles
Clouds Few 2600 ft
Scattered Clouds 10000 ft
Heat Index 85 °F
Dew Point 73 °F
Humidity 79%
Rainfall 0.00 in
Snow Depth Not available.
UV 0 out of 12
Pollen Not available.
Air Quality Not available.
Flu Activity Not available.
METAR DAAG 241830Z 00000KT 9999 FEW026 SCT100 27/23 Q1008

More Conditions Fewer Conditions

Pressure 29.77 in
Visibility 6.2 miles
Clouds Few 2600 ft
Scattered Clouds 10000 ft
Heat Index 85 °F
Dew Point 73 °F
Humidity 79%
Rainfall 0.00 in
Snow Depth Not available.
UV 0 out of 12
Pollen Not available.
Air Quality Not available.
Flu Activity Not available.
METAR DAAG 241830Z 00000KT 9999 FEW026 SCT100 27/23 Q1008

More Conditions Fewer Conditions

10-Day Weather Forecast

Almanac

Astronomy

Jul. 24, 2014 Rise Set
Actual Time 5:46 AM CET 8:00 PM CET
Civil Twilight 5:17 AM CET 8:29 PM CET
Nautical Twilight 4:41 AM CET 9:05 PM CET
Astronomical Twilight 4:02 AM CET 9:44 PM CET
Moon 3:40 AM CET 6:04 PM CET
Length of Visible Light 15h 12m
Length of Day
14h 13m
Tomorrow will be 1m 32s shorter.
Waning Crescent, 4% of the Moon is Illuminated
Today
Waning Crescent
Jul 26
New
Aug 3
First Quarter
Aug 10
Full
Aug 17
Last Quarter

Today's Extremes

Country Highs Country Lows

Community

WunderPhotos

Upload Photos

1,737,091 photos uploaded!

Nearby

Snow Depth

Not available.

Earthquake Activity

City Distance Mag. Time & Date
No recent earthquake activity has been reported nearby.
Minimum magnitude displayed is 2.5.

Coastal Water Temperatures

Place Temperature
No Stations Reporting

Nearby Weather Stations

There are no personal weather stations in this area.